sensor_id;sensor_type;location;lat;lon;timestamp;pressure;altitude;pressure_sealevel;temperature;humidity
37368;BME280;23240;43.210;27.910;2023-04-21T00:00:52;100587.25;;;11.00;100.00
37368;BME280;23240;43.210;27.910;2023-04-21T00:03:18;100595.28;;;11.00;100.00
37368;BME280;23240;43.210;27.910;2023-04-21T00:05:45;100584.31;;;11.03;100.00
37368;BME280;23240;43.210;27.910;2023-04-21T00:08:10;100581.03;;;10.99;100.00
37368;BME280;23240;43.210;27.910;2023-04-21T00:10:35;100581.88;;;11.00;100.00
37368;BME280;23240;43.210;27.910;2023-04-21T00:13:01;100576.53;;;11.00;100.00
37368;BME280;23240;43.210;27.910;2023-04-21T00:15:26;100577.91;;;10.94;100.00
37368;BME280;23240;43.210;27.910;2023-04-21T00:17:51;100576.22;;;10.93;100.00
37368;BME280;23240;43.210;27.910;2023-04-21T00:20:17;100570.56;;;10.96;100.00
37368;BME280;23240;43.210;27.910;2023-04-21T00:22:42;100566.63;;;11.00;100.00
37368;BME280;23240;43.210;27.910;2023-04-21T00:25:07;100573.97;;;10.98;100.00
37368;BME280;23240;43.210;27.910;2023-04-21T00:27:33;100576.53;;;11.00;100.00
37368;BME280;23240;43.210;27.910;2023-04-21T00:29:58;100581.03;;;10.99;100.00
37368;BME280;23240;43.210;27.910;2023-04-21T00:32:24;100573.53;;;10.93;100.00
37368;BME280;23240;43.210;27.910;2023-04-21T00:34:49;100574.03;;;10.87;100.00
37368;BME280;23240;43.210;27.910;2023-04-21T00:37:14;100568.28;;;10.92;100.00
37368;BME280;23240;43.210;27.910;2023-04-21T00:39:40;100570.00;;;10.93;100.00
37368;BME280;23240;43.210;27.910;2023-04-21T00:42:05;100574.47;;;10.92;100.00
37368;BME280;23240;43.210;27.910;2023-04-21T00:44:30;100566.03;;;10.97;100.00
37368;BME280;23240;43.210;27.910;2023-04-21T00:46:56;100562.41;;;10.98;100.00
37368;BME280;23240;43.210;27.910;2023-04-21T00:49:21;100566.91;;;10.97;100.00
37368;BME280;23240;43.210;27.910;2023-04-21T00:51:48;100560.56;;;10.98;100.00
37368;BME280;23240;43.210;27.910;2023-04-21T00:54:14;100558.16;;;10.95;100.00
37368;BME280;23240;43.210;27.910;2023-04-21T00:56:41;100560.69;;;10.97;100.00
37368;BME280;23240;43.210;27.910;2023-04-21T00:59:06;100560.44;;;11.00;100.00
37368;BME280;23240;43.210;27.910;2023-04-21T01:01:31;100548.03;;;10.99;100.00
37368;BME280;23240;43.210;27.910;2023-04-21T01:03:58;100548.41;;;10.94;100.00
37368;BME280;23240;43.210;27.910;2023-04-21T01:06:26;100548.28;;;10.96;100.00
37368;BME280;23240;43.210;27.910;2023-04-21T01:08:52;100548.56;;;10.93;100.00
37368;BME280;23240;43.210;27.910;2023-04-21T01:11:18;100556.13;;;10.88;100.00
37368;BME280;23240;43.210;27.910;2023-04-21T01:13:43;100546.22;;;10.78;100.00
37368;BME280;23240;43.210;27.910;2023-04-21T01:16:08;100547.31;;;10.76;100.00
37368;BME280;23240;43.210;27.910;2023-04-21T01:18:40;100545.75;;;10.73;100.00
37368;BME280;23240;43.210;27.910;2023-04-21T01:21:05;100537.72;;;10.73;100.00
37368;BME280;23240;43.210;27.910;2023-04-21T01:23:31;100535.28;;;10.70;100.00
37368;BME280;23240;43.210;27.910;2023-04-21T01:25:56;100536.28;;;10.69;100.00
37368;BME280;23240;43.210;27.910;2023-04-21T01:28:22;100528.69;;;10.74;100.00
37368;BME280;23240;43.210;27.910;2023-04-21T01:30:48;100527.97;;;10.72;100.00
37368;BME280;23240;43.210;27.910;2023-04-21T01:33:13;100528.81;;;10.73;100.00
37368;BME280;23240;43.210;27.910;2023-04-21T01:35:39;100521.31;;;10.67;100.00
37368;BME280;23240;43.210;27.910;2023-04-21T01:38:04;100522.16;;;10.67;100.00
37368;BME280;23240;43.210;27.910;2023-04-21T01:40:30;100524.19;;;10.75;100.00
37368;BME280;23240;43.210;27.910;2023-04-21T01:42:55;100518.22;;;10.71;100.00
37368;BME280;23240;43.210;27.910;2023-04-21T01:45:20;100526.06;;;10.63;100.00
37368;BME280;23240;43.210;27.910;2023-04-21T01:47:46;100524.91;;;10.56;100.00
37368;BME280;23240;43.210;27.910;2023-04-21T01:50:11;100522.03;;;10.48;100.00
37368;BME280;23240;43.210;27.910;2023-04-21T01:52:36;100527.91;;;10.42;100.00
37368;BME280;23240;43.210;27.910;2023-04-21T01:55:02;100525.94;;;10.44;100.00
37368;BME280;23240;43.210;27.910;2023-04-21T01:57:27;100525.69;;;10.47;100.00
37368;BME280;23240;43.210;27.910;2023-04-21T01:59:52;100531.03;;;10.47;100.00
37368;BME280;23240;43.210;27.910;2023-04-21T02:02:18;100522.03;;;10.48;100.00
37368;BME280;23240;43.210;27.910;2023-04-21T02:04:43;100524.44;;;10.51;100.00
37368;BME280;23240;43.210;27.910;2023-04-21T02:07:09;100520.53;;;10.55;100.00
37368;BME280;23240;43.210;27.910;2023-04-21T02:09:34;100518.09;;;10.52;100.00
37368;BME280;23240;43.210;27.910;2023-04-21T02:11:59;100523.22;;;10.55;100.00
37368;BME280;23240;43.210;27.910;2023-04-21T02:14:25;100517.56;;;10.58;100.00
37368;BME280;23240;43.210;27.910;2023-04-21T02:16:51;100512.28;;;10.68;100.00
37368;BME280;23240;43.210;27.910;2023-04-21T02:19:16;100511.56;;;10.66;100.00
37368;BME280;23240;43.210;27.910;2023-04-21T02:21:41;100503.34;;;10.58;100.00
37368;BME280;23240;43.210;27.910;2023-04-21T02:24:07;100510.53;;;10.57;100.00
37368;BME280;23240;43.210;27.910;2023-04-21T02:26:32;100511.28;;;10.59;100.00
37368;BME280;23240;43.210;27.910;2023-04-21T02:28:58;100510.13;;;10.62;100.00
37368;BME280;23240;43.210;27.910;2023-04-21T02:31:23;100507.59;;;10.60;100.00
37368;BME280;23240;43.210;27.910;2023-04-21T02:33:48;100512.22;;;10.58;100.00
37368;BME280;23240;43.210;27.910;2023-04-21T02:36:14;100513.00;;;10.49;100.00
37368;BME280;23240;43.210;27.910;2023-04-21T02:38:39;100511.59;;;10.45;100.00
37368;BME280;23240;43.210;27.910;2023-04-21T02:41:04;100507.94;;;10.46;100.00
37368;BME280;23240;43.210;27.910;2023-04-21T02:43:30;100502.81;;;10.43;100.00
37368;BME280;23240;43.210;27.910;2023-04-21T02:45:56;100508.63;;;10.48;100.00
37368;BME280;23240;43.210;27.910;2023-04-21T02:48:21;100499.88;;;10.46;100.00
37368;BME280;23240;43.210;27.910;2023-04-21T02:50:50;100503.16;;;10.49;100.00
37368;BME280;23240;43.210;27.910;2023-04-21T02:53:17;100502.28;;;10.49;100.00
37368;BME280;23240;43.210;27.910;2023-04-21T02:55:42;100496.69;;;10.52;100.00
37368;BME280;23240;43.210;27.910;2023-04-21T02:58:08;100489.63;;;10.51;100.00
37368;BME280;23240;43.210;27.910;2023-04-21T03:00:33;100488.78;;;10.50;100.00
37368;BME280;23240;43.210;27.910;2023-04-21T03:02:58;100501.59;;;10.47;100.00
37368;BME280;23240;43.210;27.910;2023-04-21T03:05:24;100510.31;;;10.49;100.00
37368;BME280;23240;43.210;27.910;2023-04-21T03:07:49;100507.41;;;10.52;100.00
37368;BME280;23240;43.210;27.910;2023-04-21T03:10:15;100505.31;;;10.55;100.00
37368;BME280;23240;43.210;27.910;2023-04-21T03:12:40;100501.25;;;10.61;100.00
37368;BME280;23240;43.210;27.910;2023-04-21T03:15:07;100501.25;;;10.61;100.00
37368;BME280;23240;43.210;27.910;2023-04-21T03:17:32;100502.94;;;10.62;100.00
37368;BME280;23240;43.210;27.910;2023-04-21T03:19:58;100508.31;;;10.62;100.00
37368;BME280;23240;43.210;27.910;2023-04-21T03:22:23;100507.06;;;10.66;100.00
37368;BME280;23240;43.210;27.910;2023-04-21T03:24:48;100506.81;;;10.69;100.00
37368;BME280;23240;43.210;27.910;2023-04-21T03:27:14;100511.19;;;10.70;100.00
37368;BME280;23240;43.210;27.910;2023-04-21T03:29:39;100501.31;;;10.71;100.00
37368;BME280;23240;43.210;27.910;2023-04-21T03:32:05;100509.94;;;10.74;100.00
37368;BME280;23240;43.210;27.910;2023-04-21T03:34:30;100512.34;;;10.77;100.00
37368;BME280;23240;43.210;27.910;2023-04-21T03:36:55;100511.03;;;10.72;100.00
37368;BME280;23240;43.210;27.910;2023-04-21T03:39:21;100510.78;;;10.75;100.00
37368;BME280;23240;43.210;27.910;2023-04-21T03:41:46;100509.16;;;10.84;100.00
37368;BME280;23240;43.210;27.910;2023-04-21T03:44:12;100509.22;;;10.93;100.00
37368;BME280;23240;43.210;27.910;2023-04-21T03:46:37;100501.47;;;11.00;100.00
37368;BME280;23240;43.210;27.910;2023-04-21T03:49:02;100502.56;;;10.97;100.00
37368;BME280;23240;43.210;27.910;2023-04-21T03:51:28;100495.53;;;10.96;100.00
37368;BME280;23240;43.210;27.910;2023-04-21T03:53:53;100498.53;;;11.03;100.00
37368;BME280;23240;43.210;27.910;2023-04-21T03:56:18;100508.47;;;11.12;100.00
37368;BME280;23240;43.210;27.910;2023-04-21T03:58:44;100505.78;;;11.12;100.00
37368;BME280;23240;43.210;27.910;2023-04-21T04:01:09;100521.38;;;11.07;100.00
37368;BME280;23240;43.210;27.910;2023-04-21T04:03:35;100516.75;;;11.09;100.00
37368;BME280;23240;43.210;27.910;2023-04-21T04:06:00;100518.31;;;11.12;100.00
37368;BME280;23240;43.210;27.910;2023-04-21T04:08:28;100528.06;;;11.13;100.00
37368;BME280;23240;43.210;27.910;2023-04-21T04:10:53;100530.84;;;11.11;100.00
37368;BME280;23240;43.210;27.910;2023-04-21T04:13:19;100536.81;;;11.15;100.00
37368;BME280;23240;43.210;27.910;2023-04-21T04:15:46;100542.88;;;11.17;100.00
37368;BME280;23240;43.210;27.910;2023-04-21T04:18:11;100545.28;;;11.20;100.00
37368;BME280;23240;43.210;27.910;2023-04-21T04:20:36;100542.63;;;11.20;100.00
37368;BME280;23240;43.210;27.910;2023-04-21T04:23:02;100544.63;;;11.27;100.00
37368;BME280;23240;43.210;27.910;2023-04-21T04:25:27;100546.78;;;11.33;100.00
37368;BME280;23240;43.210;27.910;2023-04-21T04:27:53;100544.97;;;11.44;100.00
37368;BME280;23240;43.210;27.910;2023-04-21T04:30:18;100541.78;;;11.59;100.00
37368;BME280;23240;43.210;27.910;2023-04-21T04:32:43;100541.38;;;11.74;100.00
37368;BME280;23240;43.210;27.910;2023-04-21T04:35:09;100546.97;;;11.82;100.00
37368;BME280;23240;43.210;27.910;2023-04-21T04:37:40;100542.28;;;11.84;100.00
37368;BME280;23240;43.210;27.910;2023-04-21T04:40:06;100546.53;;;11.87;100.00
37368;BME280;23240;43.210;27.910;2023-04-21T04:42:34;100550.06;;;11.87;100.00
37368;BME280;23240;43.210;27.910;2023-04-21T04:45:00;100551.78;;;11.88;100.00
37368;BME280;23240;43.210;27.910;2023-04-21T04:47:28;100541.06;;;11.98;100.00
37368;BME280;23240;43.210;27.910;2023-04-21T04:49:53;100538.78;;;12.03;100.00
37368;BME280;23240;43.210;27.910;2023-04-21T04:52:19;100533.41;;;12.03;100.00
37368;BME280;23240;43.210;27.910;2023-04-21T04:54:44;100548.09;;;11.99;100.00
37368;BME280;23240;43.210;27.910;2023-04-21T04:57:10;100540.34;;;11.96;100.00
37368;BME280;23240;43.210;27.910;2023-04-21T04:59:35;100538.38;;;11.98;100.00
37368;BME280;23240;43.210;27.910;2023-04-21T05:02:01;100537.38;;;11.99;100.00
37368;BME280;23240;43.210;27.910;2023-04-21T05:04:27;100535.41;;;12.01;100.00
37368;BME280;23240;43.210;27.910;2023-04-21T05:06:52;100549.66;;;11.92;100.00
37368;BME280;23240;43.210;27.910;2023-04-21T05:09:17;100544.66;;;11.77;100.00
37368;BME280;23240;43.210;27.910;2023-04-21T05:11:43;100549.84;;;11.69;100.00
37368;BME280;23240;43.210;27.910;2023-04-21T05:14:08;100545.59;;;11.57;100.00
37368;BME280;23240;43.210;27.910;2023-04-21T05:16:33;100543.59;;;11.49;100.00
37368;BME280;23240;43.210;27.910;2023-04-21T05:19:02;100535.81;;;11.46;100.00
37368;BME280;23240;43.210;27.910;2023-04-21T05:21:28;100534.94;;;11.46;100.00
37368;BME280;23240;43.210;27.910;2023-04-21T05:23:54;100542.13;;;11.36;100.00
37368;BME280;23240;43.210;27.910;2023-04-21T05:26:20;100542.56;;;11.41;100.00
37368;BME280;23240;43.210;27.910;2023-04-21T05:28:45;100546.78;;;11.33;100.00
37368;BME280;23240;43.210;27.910;2023-04-21T05:31:10;100550.16;;;11.36;100.00
37368;BME280;23240;43.210;27.910;2023-04-21T05:33:36;100555.06;;;11.30;100.00
37368;BME280;23240;43.210;27.910;2023-04-21T05:36:01;100554.69;;;11.35;100.00
37368;BME280;23240;43.210;27.910;2023-04-21T05:38:30;100560.63;;;11.39;100.00
37368;BME280;23240;43.210;27.910;2023-04-21T05:40:55;100557.28;;;11.46;100.00
37368;BME280;23240;43.210;27.910;2023-04-21T05:43:21;100551.22;;;11.54;100.00
37368;BME280;23240;43.210;27.910;2023-04-21T05:45:47;100543.75;;;11.57;100.00
37368;BME280;23240;43.210;27.910;2023-04-21T05:48:12;100542.38;;;11.73;100.00
37368;BME280;23240;43.210;27.910;2023-04-21T05:50:37;100537.25;;;11.91;100.00
37368;BME280;23240;43.210;27.910;2023-04-21T05:53:03;100535.84;;;12.06;100.00
37368;BME280;23240;43.210;27.910;2023-04-21T05:55:28;100534.28;;;12.13;100.00
37368;BME280;23240;43.210;27.910;2023-04-21T05:57:53;100533.16;;;12.16;100.00
37368;BME280;23240;43.210;27.910;2023-04-21T06:00:19;100540.81;;;12.40;100.00
37368;BME280;23240;43.210;27.910;2023-04-21T06:02:44;100541.63;;;12.69;100.00
37368;BME280;23240;43.210;27.910;2023-04-21T06:05:09;100551.09;;;12.73;100.00
37368;BME280;23240;43.210;27.910;2023-04-21T06:07:35;100546.16;;;12.59;100.00
37368;BME280;23240;43.210;27.910;2023-04-21T06:10:01;100541.91;;;12.47;100.00
37368;BME280;23240;43.210;27.910;2023-04-21T06:12:26;100543.03;;;12.64;100.00
37368;BME280;23240;43.210;27.910;2023-04-21T06:14:52;100544.13;;;12.80;100.00
37368;BME280;23240;43.210;27.910;2023-04-21T06:17:21;100552.09;;;12.72;100.00
37368;BME280;23240;43.210;27.910;2023-04-21T06:19:47;100555.34;;;12.66;100.00
37368;BME280;23240;43.210;27.910;2023-04-21T06:22:17;100565.13;;;12.67;100.00
37368;BME280;23240;43.210;27.910;2023-04-21T06:24:42;100582.34;;;12.55;100.00
37368;BME280;23240;43.210;27.910;2023-04-21T06:27:10;100574.88;;;12.20;100.00
37368;BME280;23240;43.210;27.910;2023-04-21T06:29:36;100590.78;;;12.02;100.00
37368;BME280;23240;43.210;27.910;2023-04-21T06:32:02;100605.94;;;11.72;100.00
37368;BME280;23240;43.210;27.910;2023-04-21T06:34:27;100610.22;;;11.54;100.00
37368;BME280;23240;43.210;27.910;2023-04-21T06:36:53;100603.50;;;11.29;100.00
37368;BME280;23240;43.210;27.910;2023-04-21T06:39:19;100598.31;;;11.16;100.00
37368;BME280;23240;43.210;27.910;2023-04-21T06:41:44;100594.94;;;11.14;100.00
37368;BME280;23240;43.210;27.910;2023-04-21T06:44:09;100601.22;;;11.03;100.00
37368;BME280;23240;43.210;27.910;2023-04-21T06:46:38;100601.94;;;11.05;100.00
37368;BME280;23240;43.210;27.910;2023-04-21T06:49:04;100617.44;;;11.02;100.00
37368;BME280;23240;43.210;27.910;2023-04-21T06:51:30;100611.59;;;10.97;100.00
37368;BME280;23240;43.210;27.910;2023-04-21T06:53:56;100612.06;;;11.02;100.00
37368;BME280;23240;43.210;27.910;2023-04-21T06:56:21;100613.25;;;11.09;100.00
37368;BME280;23240;43.210;27.910;2023-04-21T06:58:47;100622.75;;;11.13;100.00
37368;BME280;23240;43.210;27.910;2023-04-21T07:01:12;100619.53;;;11.19;100.00
37368;BME280;23240;43.210;27.910;2023-04-21T07:03:37;100617.88;;;11.07;100.00
37368;BME280;23240;43.210;27.910;2023-04-21T07:06:03;100613.19;;;10.99;100.00
37368;BME280;23240;43.210;27.910;2023-04-21T07:08:28;100613.78;;;11.03;100.00
37368;BME280;23240;43.210;27.910;2023-04-21T07:10:54;100620.38;;;10.99;100.00
37368;BME280;23240;43.210;27.910;2023-04-21T07:13:19;100614.88;;;11.00;100.00
37368;BME280;23240;43.210;27.910;2023-04-21T07:15:44;100620.97;;;11.02;100.00
37368;BME280;23240;43.210;27.910;2023-04-21T07:18:10;100617.03;;;11.06;100.00
37368;BME280;23240;43.210;27.910;2023-04-21T07:20:35;100611.28;;;11.11;100.00
37368;BME280;23240;43.210;27.910;2023-04-21T07:23:01;100600.91;;;11.18;100.00
37368;BME280;23240;43.210;27.910;2023-04-21T07:25:26;100601.66;;;11.29;100.00
37368;BME280;23240;43.210;27.910;2023-04-21T07:27:51;100608.91;;;11.39;100.00
37368;BME280;23240;43.210;27.910;2023-04-21T07:30:17;100602.09;;;11.35;100.00
37368;BME280;23240;43.210;27.910;2023-04-21T07:32:42;100600.06;;;11.48;100.00
37368;BME280;23240;43.210;27.910;2023-04-21T07:35:07;100605.59;;;11.56;100.00
37368;BME280;23240;43.210;27.910;2023-04-21T07:37:33;100605.31;;;11.59;100.00
37368;BME280;23240;43.210;27.910;2023-04-21T07:39:58;100607.75;;;11.62;100.00
37368;BME280;23240;43.210;27.910;2023-04-21T07:42:24;100622.03;;;11.72;100.00
37368;BME280;23240;43.210;27.910;2023-04-21T07:44:51;100614.00;;;11.72;100.00
37368;BME280;23240;43.210;27.910;2023-04-21T07:47:16;100620.34;;;11.71;100.00
37368;BME280;23240;43.210;27.910;2023-04-21T07:49:42;100610.69;;;11.90;100.00
37368;BME280;23240;43.210;27.910;2023-04-21T07:52:07;100603.94;;;11.74;100.00
37368;BME280;23240;43.210;27.910;2023-04-21T07:54:33;100604.00;;;11.84;100.00
37368;BME280;23240;43.210;27.910;2023-04-21T07:56:58;100605.38;;;12.09;100.00
37368;BME280;23240;43.210;27.910;2023-04-21T07:59:23;100613.31;;;12.40;100.00
37368;BME280;23240;43.210;27.910;2023-04-21T08:01:49;100608.38;;;12.64;100.00
37368;BME280;23240;43.210;27.910;2023-04-21T08:04:16;100606.28;;;12.58;100.00
37368;BME280;23240;43.210;27.910;2023-04-21T08:06:41;100602.00;;;12.65;100.00
37368;BME280;23240;43.210;27.910;2023-04-21T08:09:06;100610.63;;;12.78;100.00
37368;BME280;23240;43.210;27.910;2023-04-21T08:11:32;100612.59;;;12.76;100.00
37368;BME280;23240;43.210;27.910;2023-04-21T08:13:57;100618.44;;;12.81;100.00
37368;BME280;23240;43.210;27.910;2023-04-21T08:16:22;100626.50;;;12.81;100.00
37368;BME280;23240;43.210;27.910;2023-04-21T08:18:47;100625.94;;;12.68;100.00
37368;BME280;23240;43.210;27.910;2023-04-21T08:21:13;100630.88;;;12.73;100.00
37368;BME280;23240;43.210;27.910;2023-04-21T08:23:39;100624.78;;;12.61;100.00
37368;BME280;23240;43.210;27.910;2023-04-21T08:26:04;100626.03;;;12.47;100.00
37368;BME280;23240;43.210;27.910;2023-04-21T08:28:29;100626.78;;;12.59;100.00
37368;BME280;23240;43.210;27.910;2023-04-21T08:30:55;100622.25;;;12.69;100.00
37368;BME280;23240;43.210;27.910;2023-04-21T08:33:20;100623.66;;;12.64;100.00
37368;BME280;23240;43.210;27.910;2023-04-21T08:35:45;100621.53;;;12.48;100.00
37368;BME280;23240;43.210;27.910;2023-04-21T08:38:11;100615.44;;;12.46;100.00
37368;BME280;23240;43.210;27.910;2023-04-21T08:40:36;100612.19;;;12.52;100.00
37368;BME280;23240;43.210;27.910;2023-04-21T08:43:06;100612.91;;;12.54;100.00
37368;BME280;23240;43.210;27.910;2023-04-21T08:45:31;100603.59;;;12.58;100.00
37368;BME280;23240;43.210;27.910;2023-04-21T08:47:58;100603.00;;;12.54;100.00
37368;BME280;23240;43.210;27.910;2023-04-21T08:50:25;100612.06;;;12.53;100.00
37368;BME280;23240;43.210;27.910;2023-04-21T08:52:51;100613.75;;;12.74;100.00
37368;BME280;23240;43.210;27.910;2023-04-21T08:55:16;100616.84;;;12.98;100.00
37368;BME280;23240;43.210;27.910;2023-04-21T08:57:42;100615.28;;;13.15;100.00
37368;BME280;23240;43.210;27.910;2023-04-21T09:00:08;100619.03;;;13.42;100.00
37368;BME280;23240;43.210;27.910;2023-04-21T09:02:34;100613.03;;;13.57;100.00
37368;BME280;23240;43.210;27.910;2023-04-21T09:05:20;100615.03;;;13.55;100.00
37368;BME280;23240;43.210;27.910;2023-04-21T09:07:45;100610.28;;;13.67;100.00
37368;BME280;23240;43.210;27.910;2023-04-21T09:10:11;100620.34;;;13.75;100.00
37368;BME280;23240;43.210;27.910;2023-04-21T09:12:37;100609.19;;;13.87;100.00
37368;BME280;23240;43.210;27.910;2023-04-21T09:15:04;100607.00;;;14.01;100.00
37368;BME280;23240;43.210;27.910;2023-04-21T09:17:30;100602.63;;;14.00;100.00
37368;BME280;23240;43.210;27.910;2023-04-21T09:20:19;100605.94;;;14.11;100.00
37368;BME280;23240;43.210;27.910;2023-04-21T09:22:46;100595.06;;;13.85;100.00
37368;BME280;23240;43.210;27.910;2023-04-21T09:25:18;100594.72;;;13.98;100.00
37368;BME280;23240;43.210;27.910;2023-04-21T09:27:44;100594.09;;;14.04;100.00
37368;BME280;23240;43.210;27.910;2023-04-21T09:30:09;100594.16;;;13.95;100.00
37368;BME280;23240;43.210;27.910;2023-04-21T09:32:36;100589.44;;;13.79;100.00
37368;BME280;23240;43.210;27.910;2023-04-21T09:35:02;100592.63;;;14.10;100.00
37368;BME280;23240;43.210;27.910;2023-04-21T09:37:27;100596.22;;;14.28;100.00
37368;BME280;23240;43.210;27.910;2023-04-21T09:39:55;100581.09;;;14.35;100.00
37368;BME280;23240;43.210;27.910;2023-04-21T09:42:27;100586.97;;;14.13;100.00
37368;BME280;23240;43.210;27.910;2023-04-21T09:44:52;100585.13;;;14.31;100.00
37368;BME280;23240;43.210;27.910;2023-04-21T09:47:18;100600.34;;;14.40;100.00
37368;BME280;23240;43.210;27.910;2023-04-21T09:49:44;100586.44;;;14.27;97.77
37368;BME280;23240;43.210;27.910;2023-04-21T09:52:11;100579.97;;;14.38;95.56
37368;BME280;23240;43.210;27.910;2023-04-21T09:54:40;100582.06;;;14.62;93.61
37368;BME280;23240;43.210;27.910;2023-04-21T09:57:07;100576.00;;;15.04;94.48
37368;BME280;23240;43.210;27.910;2023-04-21T09:59:35;100574.34;;;15.11;93.19
37368;BME280;23240;43.210;27.910;2023-04-21T10:02:00;100572.81;;;15.34;92.91
37368;BME280;23240;43.210;27.910;2023-04-21T10:04:29;100569.53;;;15.57;92.17
37368;BME280;23240;43.210;27.910;2023-04-21T10:06:55;100576.78;;;15.82;88.75
37368;BME280;23240;43.210;27.910;2023-04-21T10:09:21;100576.19;;;15.36;73.77
37368;BME280;23240;43.210;27.910;2023-04-21T10:11:47;100577.16;;;15.01;71.26
37368;BME280;23240;43.210;27.910;2023-04-21T10:14:13;100576.41;;;14.91;69.92
37368;BME280;23240;43.210;27.910;2023-04-21T10:16:38;100581.50;;;14.94;69.55
37368;BME280;23240;43.210;27.910;2023-04-21T10:21:49;100570.81;;;15.10;68.49
37368;BME280;23240;43.210;27.910;2023-04-21T10:24:14;100564.59;;;14.92;71.68
37368;BME280;23240;43.210;27.910;2023-04-21T10:26:40;100579.88;;;14.83;71.01
37368;BME280;23240;43.210;27.910;2023-04-21T10:29:05;100564.34;;;14.77;69.07
37368;BME280;23240;43.210;27.910;2023-04-21T10:31:34;100568.69;;;14.96;69.08
37368;BME280;23240;43.210;27.910;2023-04-21T10:39:09;100567.88;;;15.98;64.47
37368;BME280;23240;43.210;27.910;2023-04-21T10:41:37;100562.25;;;15.83;63.18
37368;BME280;23240;43.210;27.910;2023-04-21T10:46:44;100561.50;;;16.15;64.86
37368;BME280;23240;43.210;27.910;2023-04-21T10:49:10;100555.63;;;16.20;61.29
37368;BME280;23240;43.210;27.910;2023-04-21T10:54:20;100564.22;;;15.65;62.92
37368;BME280;23240;43.210;27.910;2023-04-21T10:56:47;100563.41;;;15.81;61.83
37368;BME280;23240;43.210;27.910;2023-04-21T10:59:14;100565.84;;;16.00;61.06
37368;BME280;23240;43.210;27.910;2023-04-21T11:01:39;100568.69;;;15.90;61.57
37368;BME280;23240;43.210;27.910;2023-04-21T11:04:09;100564.00;;;16.01;62.43
37368;BME280;23240;43.210;27.910;2023-04-21T11:06:37;100574.44;;;15.87;61.84
37368;BME280;23240;43.210;27.910;2023-04-21T11:09:02;100572.97;;;15.33;64.36
37368;BME280;23240;43.210;27.910;2023-04-21T11:11:28;100574.94;;;14.97;66.53
37368;BME280;23240;43.210;27.910;2023-04-21T11:13:53;100582.72;;;15.00;66.84
37368;BME280;23240;43.210;27.910;2023-04-21T11:16:19;100574.34;;;15.11;65.69
37368;BME280;23240;43.210;27.910;2023-04-21T11:18:44;100566.16;;;14.95;67.37
37368;BME280;23240;43.210;27.910;2023-04-21T11:21:14;100564.25;;;14.69;69.51
37368;BME280;23240;43.210;27.910;2023-04-21T11:23:52;100568.06;;;14.58;71.24
37368;BME280;23240;43.210;27.910;2023-04-21T11:26:28;100570.81;;;15.10;70.66
37368;BME280;23240;43.210;27.910;2023-04-21T11:28:54;100561.44;;;15.23;67.36
37368;BME280;23240;43.210;27.910;2023-04-21T11:31:19;100552.09;;;15.09;66.70
37368;BME280;23240;43.210;27.910;2023-04-21T11:33:45;100544.25;;;14.72;62.57
37368;BME280;23240;43.210;27.910;2023-04-21T11:36:10;100546.56;;;14.93;63.46
37368;BME280;23240;43.210;27.910;2023-04-21T11:38:39;100534.78;;;14.94;61.97
37368;BME280;23240;43.210;27.910;2023-04-21T11:41:05;100543.09;;;15.00;63.28
37368;BME280;23240;43.210;27.910;2023-04-21T11:43:30;100559.59;;;15.23;63.34
37368;BME280;23240;43.210;27.910;2023-04-21T11:46:12;100542.84;;;15.46;61.22
37368;BME280;23240;43.210;27.910;2023-04-21T11:48:37;100558.22;;;15.87;59.22
37368;BME280;23240;43.210;27.910;2023-04-21T11:51:03;100554.25;;;15.65;58.45
37368;BME280;23240;43.210;27.910;2023-04-21T11:53:28;100558.84;;;15.47;60.00
37368;BME280;23240;43.210;27.910;2023-04-21T11:55:53;100554.41;;;15.30;61.19
37368;BME280;23240;43.210;27.910;2023-04-21T11:58:20;100565.72;;;15.07;64.02
37368;BME280;23240;43.210;27.910;2023-04-21T12:00:45;100563.00;;;14.99;66.60
37368;BME280;23240;43.210;27.910;2023-04-21T12:03:11;100576.31;;;15.01;65.71
37368;BME280;23240;43.210;27.910;2023-04-21T12:05:37;100566.75;;;14.88;66.95
37368;BME280;23240;43.210;27.910;2023-04-21T12:08:02;100571.56;;;14.95;65.44
37368;BME280;23240;43.210;27.910;2023-04-21T12:10:30;100567.41;;;14.82;64.00
37368;BME280;23240;43.210;27.910;2023-04-21T12:12:55;100575.56;;;14.90;63.52
37368;BME280;23240;43.210;27.910;2023-04-21T12:15:21;100579.66;;;14.95;63.75
37368;BME280;23240;43.210;27.910;2023-04-21T12:17:49;100565.22;;;15.04;64.46
37368;BME280;23240;43.210;27.910;2023-04-21T12:20:16;100596.25;;;15.08;65.88
37368;BME280;23240;43.210;27.910;2023-04-21T12:22:42;100575.91;;;15.13;64.47
37368;BME280;23240;43.210;27.910;2023-04-21T12:25:07;100591.28;;;15.21;66.22
37368;BME280;23240;43.210;27.910;2023-04-21T12:27:35;100585.72;;;15.23;65.22
37368;BME280;23240;43.210;27.910;2023-04-21T12:30:00;100587.59;;;14.78;67.91
37368;BME280;23240;43.210;27.910;2023-04-21T12:32:27;100566.38;;;14.57;70.46
37368;BME280;23240;43.210;27.910;2023-04-21T12:34:52;100584.97;;;14.33;72.58
37368;BME280;23240;43.210;27.910;2023-04-21T12:37:18;100574.94;;;14.25;74.24
37368;BME280;23240;43.210;27.910;2023-04-21T12:39:43;100560.19;;;14.29;74.68